TAF/METAR LISTING

Current time:12/17/1:21 Z
Looking Back to:12/17/01:21 Z, going back 0 hour(s)

METAR:

PAFA 170053Z 34003KT 9SM -SN FEW007 SCT130 BKN200 M26/M29
A2908 RMK AO2 SNB53 SLP866 -SN IC T12611294 PNO =

PAFA 162353Z 00000KT 10SM FEW140 BKN200 M26/M30 A2910 RMK AO2
SLP873 T12611300 11244 21272 56026 PNO =

______________________________________

TAF:
TAFAFA
TAF AMD
PAFA 170055Z 1701/1806 VRB03KT 6SM BR SCT010 BKN100
TEMPO 1701/1704 3SM BR
FM170400 VRB03KT P6SM SCT050 BKN100
FM171800 00000KT P6SM VCSH BKN050 BKN100
FM172200 VRB03KT P6SM VCSH FEW025 OVC040 =